createdAt,value
2017-03-03T00:01:00.050Z,0
2017-03-03T00:01:45.558Z,0
2017-03-03T00:03:00.085Z,0
2017-03-03T00:03:45.610Z,0
2017-03-03T00:04:45.618Z,0
2017-03-03T00:06:45.955Z,0
2017-03-03T00:07:45.715Z,0
2017-03-03T00:08:45.686Z,0
2017-03-03T00:10:00.214Z,0
2017-03-03T00:10:45.317Z,0
2017-03-03T00:11:45.736Z,0
2017-03-03T00:12:45.752Z,0
2017-03-03T00:13:45.381Z,0
2017-03-03T00:14:45.780Z,0
2017-03-03T00:15:59.953Z,0
2017-03-03T00:18:45.855Z,0
2017-03-03T00:19:45.860Z,0
2017-03-03T00:20:45.902Z,0
2017-03-03T00:21:45.930Z,0
2017-03-03T00:22:45.932Z,0
2017-03-03T00:23:45.557Z,0
2017-03-03T00:26:00.556Z,0
2017-03-03T00:27:00.535Z,0
2017-03-03T00:27:46.039Z,0
2017-03-03T00:28:46.033Z,0
2017-03-03T00:29:46.057Z,0
2017-03-03T00:30:46.063Z,0
2017-03-03T00:32:00.625Z,0
2017-03-03T00:32:46.120Z,0
2017-03-03T00:33:46.136Z,0
2017-03-03T00:35:00.661Z,0
2017-03-03T00:35:46.158Z,0
2017-03-03T00:38:00.725Z,0
2017-03-03T00:38:46.249Z,0
2017-03-03T00:39:46.231Z,0
2017-03-03T00:41:00.809Z,0
2017-03-03T00:42:00.789Z,0
2017-03-03T00:42:46.330Z,0
2017-03-03T00:43:46.305Z,0
2017-03-03T00:44:46.334Z,0
2017-03-03T00:45:46.339Z,0
2017-03-03T00:47:00.909Z,0
2017-03-03T00:47:46.371Z,0
2017-03-03T00:48:46.015Z,0
2017-03-03T00:49:46.408Z,0
2017-03-03T00:50:46.422Z,0
2017-03-03T00:51:46.480Z,0
2017-03-03T00:52:46.454Z,0
2017-03-03T00:54:01.016Z,0
2017-03-03T00:54:46.507Z,0
2017-03-03T00:55:46.154Z,0
2017-03-03T00:56:46.537Z,0
2017-03-03T00:58:01.073Z,0
2017-03-03T00:58:46.557Z,0
2017-03-03T00:59:46.578Z,0
2017-03-03T01:01:01.159Z,0
2017-03-03T01:01:46.617Z,0
2017-03-03T01:03:01.172Z,0
2017-03-03T01:04:01.179Z,0
2017-03-03T01:04:46.669Z,0
2017-03-03T01:05:46.294Z,0
2017-03-03T01:06:46.964Z,0
2017-03-03T01:07:46.753Z,0
2017-03-03T01:08:46.385Z,0
2017-03-03T01:09:46.772Z,0
2017-03-03T01:11:46.788Z,0
2017-03-03T01:13:01.358Z,0
2017-03-03T01:13:46.435Z,0
2017-03-03T01:15:01.409Z,0
2017-03-03T01:15:46.887Z,0
2017-03-03T01:16:46.893Z,0
2017-03-03T01:17:46.904Z,0
2017-03-03T01:19:01.459Z,0
2017-03-03T01:19:46.927Z,0
2017-03-03T01:20:46.968Z,0
2017-03-03T01:21:46.977Z,0
2017-03-03T01:24:01.537Z,0
2017-03-03T01:24:47.049Z,0
2017-03-03T01:27:47.072Z,0
2017-03-03T01:29:47.118Z,0
2017-03-03T01:30:47.140Z,0
2017-03-03T01:31:46.784Z,0
2017-03-03T01:32:47.166Z,0
2017-03-03T01:33:46.814Z,0
2017-03-03T01:34:47.214Z,0
2017-03-03T01:35:47.223Z,0
2017-03-03T01:36:47.230Z,0
2017-03-03T01:38:01.779Z,0
2017-03-03T01:38:47.280Z,0
2017-03-03T01:39:47.287Z,0
2017-03-03T01:40:47.309Z,0
2017-03-03T01:41:47.321Z,0
2017-03-03T01:42:47.360Z,0
2017-03-03T01:43:47.373Z,0
2017-03-03T01:45:01.911Z,0
2017-03-03T01:46:01.926Z,0
2017-03-03T01:47:01.959Z,0
2017-03-03T01:47:47.426Z,0
2017-03-03T01:49:01.988Z,0
2017-03-03T01:50:01.989Z,0
2017-03-03T01:50:47.487Z,0
2017-03-03T01:52:02.042Z,0
2017-03-03T01:53:47.147Z,0
2017-03-03T01:55:47.582Z,0
2017-03-03T01:56:47.581Z,0
2017-03-03T01:57:47.648Z,0
2017-03-03T01:58:47.619Z,0
2017-03-03T01:59:47.649Z,0
2017-03-03T02:01:16.726Z,0
2017-03-03T02:01:47.672Z,0
2017-03-03T02:02:47.718Z,0
2017-03-03T02:03:47.760Z,0
2017-03-03T02:04:47.722Z,0
2017-03-03T02:05:47.767Z,0
2017-03-03T02:06:47.767Z,0
2017-03-03T02:08:01.947Z,0
2017-03-03T02:08:47.421Z,0
2017-03-03T02:09:47.809Z,0
2017-03-03T02:10:47.838Z,0
2017-03-03T02:11:47.870Z,0
2017-03-03T02:12:47.883Z,0
2017-03-03T02:13:47.903Z,0
2017-03-03T02:14:47.908Z,0
2017-03-03T02:15:47.923Z,0
2017-03-03T02:17:02.464Z,0
2017-03-03T02:17:47.970Z,0
2017-03-03T02:19:47.624Z,0
2017-03-03T02:20:48.016Z,0
2017-03-03T02:22:02.568Z,0
2017-03-03T02:22:48.044Z,0
2017-03-03T02:24:48.107Z,0
2017-03-03T02:25:47.712Z,0
2017-03-03T02:26:47.769Z,0
2017-03-03T02:28:48.156Z,0
2017-03-03T02:30:02.698Z,0
2017-03-03T02:30:48.193Z,0
2017-03-03T02:31:48.199Z,0
2017-03-03T02:33:02.747Z,0
2017-03-03T02:34:02.763Z,0
2017-03-03T02:34:48.248Z,0
2017-03-03T02:35:48.284Z,0
2017-03-03T02:36:48.297Z,0
2017-03-03T02:38:02.849Z,0
2017-03-03T02:39:02.846Z,0
2017-03-03T02:39:48.358Z,0
2017-03-03T02:40:48.351Z,0
2017-03-03T02:42:02.895Z,0
2017-03-03T02:43:48.028Z,0
2017-03-03T02:44:48.418Z,0
2017-03-03T02:45:48.455Z,0
2017-03-03T02:46:48.463Z,0
2017-03-03T02:48:03.003Z,0
2017-03-03T02:48:48.501Z,0
2017-03-03T02:49:48.505Z,0
2017-03-03T02:50:48.529Z,0
2017-03-03T02:51:48.552Z,0
2017-03-03T02:52:48.559Z,0
2017-03-03T02:54:03.102Z,0
2017-03-03T02:55:03.138Z,0
2017-03-03T02:55:48.632Z,0
2017-03-03T02:57:03.154Z,0
2017-03-03T02:57:48.657Z,0
2017-03-03T02:59:03.199Z,0
2017-03-03T03:00:48.726Z,0
2017-03-03T03:01:48.758Z,0
2017-03-03T03:03:03.284Z,0
2017-03-03T03:03:48.757Z,0
2017-03-03T03:05:48.781Z,0
2017-03-03T03:06:48.424Z,0
2017-03-03T03:07:48.827Z,0
2017-03-03T03:08:48.839Z,0
2017-03-03T03:09:48.880Z,0
2017-03-03T03:10:48.872Z,0
2017-03-03T03:11:48.916Z,0
2017-03-03T03:13:48.921Z,0
2017-03-03T03:14:48.944Z,0
2017-03-03T03:15:48.957Z,0
2017-03-03T03:17:03.546Z,0
2017-03-03T03:17:49.028Z,0
2017-03-03T03:18:49.014Z,0
2017-03-03T03:20:03.549Z,0
2017-03-03T03:21:03.579Z,0
2017-03-03T03:21:48.694Z,0
2017-03-03T03:22:49.082Z,0
2017-03-03T03:23:49.095Z,0
2017-03-03T03:25:03.649Z,0
2017-03-03T03:26:49.149Z,0
2017-03-03T03:27:49.169Z,0
2017-03-03T03:29:03.705Z,0
2017-03-03T03:29:49.199Z,0
2017-03-03T03:31:03.735Z,0
2017-03-03T03:32:49.257Z,0
2017-03-03T03:33:49.268Z,0
2017-03-03T03:34:49.289Z,0
2017-03-03T03:36:17.960Z,0
2017-03-03T03:36:49.343Z,0
2017-03-03T03:38:03.861Z,0
2017-03-03T03:38:49.350Z,0
2017-03-03T03:39:49.368Z,0
2017-03-03T03:40:49.377Z,0
2017-03-03T03:42:03.925Z,0
2017-03-03T03:42:49.040Z,0
2017-03-03T03:43:49.441Z,0
2017-03-03T03:44:49.448Z,0
2017-03-03T03:45:49.494Z,0
2017-03-03T03:46:49.509Z,0
2017-03-03T03:47:49.520Z,0
2017-03-03T03:48:49.124Z,0
2017-03-03T03:50:04.069Z,0
2017-03-03T03:50:49.546Z,0
2017-03-03T03:52:04.092Z,0
2017-03-03T03:52:49.604Z,0
2017-03-03T03:53:49.614Z,0
2017-03-03T03:55:04.146Z,0
2017-03-03T03:56:04.194Z,0
2017-03-03T03:57:04.173Z,0
2017-03-03T03:57:49.683Z,0
2017-03-03T03:58:49.732Z,0
2017-03-03T04:00:04.228Z,0
2017-03-03T04:00:49.724Z,0
2017-03-03T04:01:49.366Z,0
2017-03-03T04:02:49.785Z,0
2017-03-03T04:03:49.387Z,0
2017-03-03T04:04:49.800Z,0
2017-03-03T04:05:49.417Z,0
2017-03-03T04:06:49.814Z,0
2017-03-03T04:08:04.360Z,0
2017-03-03T04:08:49.852Z,0
2017-03-03T04:09:49.873Z,0
2017-03-03T04:10:49.883Z,0
2017-03-03T04:12:04.456Z,0
2017-03-03T04:12:49.942Z,0
2017-03-03T04:13:49.949Z,0
2017-03-03T04:14:49.958Z,0
2017-03-03T04:15:49.970Z,0
2017-03-03T04:16:49.978Z,0
2017-03-03T04:17:50.054Z,0
2017-03-03T04:18:50.023Z,0
2017-03-03T04:19:50.030Z,0
2017-03-03T04:21:04.588Z,0
2017-03-03T04:21:50.077Z,0
2017-03-03T04:23:04.226Z,0
2017-03-03T04:23:50.100Z,0
2017-03-03T04:24:50.119Z,0
2017-03-03T04:25:49.756Z,0
2017-03-03T04:26:50.203Z,0
2017-03-03T04:27:50.200Z,0
2017-03-03T04:28:50.193Z,0
2017-03-03T04:29:50.216Z,0
2017-03-03T04:30:50.223Z,0
2017-03-03T04:31:50.240Z,0
2017-03-03T04:33:04.800Z,0
2017-03-03T04:33:50.290Z,0
2017-03-03T04:34:50.301Z,0
2017-03-03T04:35:50.305Z,0
2017-03-03T04:36:50.320Z,0
2017-03-03T04:37:50.350Z,0
2017-03-03T04:38:50.349Z,0
2017-03-03T04:39:50.389Z,0
2017-03-03T04:40:50.418Z,0
2017-03-03T04:41:50.433Z,0
2017-03-03T04:42:50.434Z,0
2017-03-03T04:43:50.463Z,0
2017-03-03T04:45:04.988Z,0
2017-03-03T04:45:50.092Z,0
2017-03-03T04:46:50.483Z,0
2017-03-03T04:48:05.022Z,0
2017-03-03T04:49:50.551Z,0
2017-03-03T04:50:50.563Z,0
2017-03-03T04:53:05.116Z,0
2017-03-03T04:53:50.615Z,0
2017-03-03T04:55:19.666Z,0
2017-03-03T04:55:50.629Z,0
2017-03-03T04:56:50.646Z,0
2017-03-03T04:58:05.210Z,0
2017-03-03T05:00:50.741Z,0
2017-03-03T05:01:50.354Z,0
2017-03-03T05:02:50.776Z,0
2017-03-03T05:03:50.789Z,0
2017-03-03T05:04:50.782Z,0
2017-03-03T05:05:50.839Z,0
2017-03-03T05:06:50.812Z,0
2017-03-03T05:07:50.829Z,0
2017-03-03T05:08:50.477Z,0
2017-03-03T05:09:50.870Z,0
2017-03-03T05:11:05.020Z,0
2017-03-03T05:11:50.889Z,0
2017-03-03T05:12:50.917Z,0
2017-03-03T05:13:50.959Z,0
2017-03-03T05:14:50.946Z,0
2017-03-03T05:15:50.953Z,0
2017-03-03T05:16:50.985Z,0
2017-03-03T05:17:51.014Z,0
2017-03-03T05:18:51.026Z,0
2017-03-03T05:21:05.216Z,0
2017-03-03T05:22:05.593Z,0
2017-03-03T05:22:50.319Z,0
2017-03-03T05:24:05.223Z,0
2017-03-03T05:25:51.122Z,0
2017-03-03T05:27:19.802Z,0
2017-03-03T05:27:50.771Z,0
2017-03-03T05:29:05.734Z,0
2017-03-03T05:29:51.190Z,0
2017-03-03T05:30:51.240Z,0
2017-03-03T05:31:51.226Z,0
2017-03-03T05:32:51.247Z,0
2017-03-03T05:33:51.252Z,0
2017-03-03T05:34:51.270Z,0
2017-03-03T05:35:51.280Z,0
2017-03-03T05:37:05.835Z,0
2017-03-03T05:38:05.455Z,0
2017-03-03T05:38:51.348Z,0
2017-03-03T05:39:51.347Z,0
2017-03-03T05:40:51.362Z,0
2017-03-03T05:41:51.389Z,5
2017-03-03T05:43:05.938Z,5
2017-03-03T05:43:51.413Z,5
2017-03-03T05:44:51.467Z,5
2017-03-03T05:46:05.977Z,5
2017-03-03T05:46:51.473Z,5
2017-03-03T05:48:06.006Z,5
2017-03-03T05:49:06.020Z,10
2017-03-03T05:50:05.669Z,10
2017-03-03T05:50:51.544Z,10
2017-03-03T05:51:51.538Z,10
2017-03-03T05:52:51.587Z,10
2017-03-03T05:53:51.578Z,10
2017-03-03T05:54:51.595Z,10
2017-03-03T05:56:06.162Z,15
2017-03-03T05:56:51.627Z,15
2017-03-03T05:58:06.177Z,15
2017-03-03T05:58:51.680Z,20
2017-03-03T05:59:51.674Z,20
2017-03-03T06:01:06.234Z,20
2017-03-03T06:01:51.774Z,20
2017-03-03T06:03:51.750Z,30
2017-03-03T06:04:51.754Z,30
2017-03-03T06:06:06.330Z,35
2017-03-03T06:06:51.821Z,35
2017-03-03T06:08:51.822Z,35
2017-03-03T06:09:51.841Z,40
2017-03-03T06:10:51.889Z,40
2017-03-03T06:11:51.878Z,45
2017-03-03T06:12:51.921Z,45
2017-03-03T06:13:51.905Z,50
2017-03-03T06:14:51.916Z,50
2017-03-03T06:15:51.958Z,55
2017-03-03T06:16:51.972Z,65
2017-03-03T06:17:51.965Z,80
2017-03-03T06:18:52.021Z,110
2017-03-03T06:20:52.028Z,155
2017-03-03T06:22:52.057Z,240
2017-03-03T06:23:52.107Z,220
2017-03-03T06:24:52.120Z,285
2017-03-03T06:25:51.731Z,285
2017-03-03T06:26:52.133Z,290
2017-03-03T06:27:51.365Z,275
2017-03-03T06:28:52.150Z,280
2017-03-03T06:30:06.722Z,285
2017-03-03T06:30:51.802Z,315
2017-03-03T06:31:51.855Z,405
2017-03-03T06:32:52.242Z,430
2017-03-03T06:33:51.873Z,440
2017-03-03T06:34:52.265Z,475
2017-03-03T06:35:52.283Z,520
2017-03-03T06:36:52.319Z,545
2017-03-03T06:38:06.864Z,575
2017-03-03T06:39:06.870Z,595
2017-03-03T06:39:52.381Z,605
2017-03-03T06:40:52.405Z,610
2017-03-03T06:41:52.425Z,635
2017-03-03T06:42:52.437Z,640
2017-03-03T06:43:52.441Z,665
2017-03-03T06:44:52.478Z,675
2017-03-03T06:46:07.021Z,705
2017-03-03T06:46:52.509Z,700
2017-03-03T06:47:52.554Z,720
2017-03-03T06:48:52.571Z,780
2017-03-03T06:50:07.128Z,830
2017-03-03T06:50:52.625Z,790
2017-03-03T06:52:07.194Z,495
2017-03-03T06:52:52.670Z,590
2017-03-03T06:53:52.688Z,670
2017-03-03T06:55:07.232Z,635
2017-03-03T06:55:52.725Z,620
2017-03-03T06:56:52.748Z,625
2017-03-03T06:57:52.865Z,625
2017-03-03T06:58:52.819Z,605
2017-03-03T06:59:52.863Z,630
2017-03-03T07:00:52.842Z,665
2017-03-03T07:02:21.932Z,725
2017-03-03T07:02:52.894Z,690
2017-03-03T07:03:52.911Z,700
2017-03-03T07:04:52.964Z,730
2017-03-03T07:06:07.484Z,780
2017-03-03T07:06:52.975Z,750
2017-03-03T07:08:07.538Z,820
2017-03-03T07:08:53.055Z,805
2017-03-03T07:09:53.065Z,805
2017-03-03T07:10:53.121Z,805
2017-03-03T07:12:07.246Z,635
2017-03-03T07:12:53.161Z,540
2017-03-03T07:13:53.151Z,590
2017-03-03T07:14:53.220Z,535
2017-03-03T07:15:53.238Z,580
2017-03-03T07:16:53.227Z,670
2017-03-03T07:18:07.786Z,760
2017-03-03T07:19:07.813Z,830
2017-03-03T07:19:53.328Z,830
2017-03-03T07:20:53.337Z,840
2017-03-03T07:21:53.349Z,790
2017-03-03T07:22:53.384Z,835
2017-03-03T07:23:53.711Z,895
2017-03-03T07:24:53.426Z,875
2017-03-03T07:25:53.452Z,885
2017-03-03T07:26:53.481Z,935
2017-03-03T07:27:53.505Z,880
2017-03-03T07:28:53.159Z,635
2017-03-03T07:30:07.705Z,300
2017-03-03T07:30:53.595Z,275
2017-03-03T07:31:53.626Z,265
2017-03-03T07:33:08.161Z,265
2017-03-03T07:33:53.681Z,260
2017-03-03T07:34:53.681Z,280
2017-03-03T07:35:53.750Z,280
2017-03-03T07:36:53.726Z,275
2017-03-03T07:38:08.302Z,280
2017-03-03T07:38:53.785Z,275
2017-03-03T07:39:53.806Z,275
2017-03-03T07:41:08.375Z,285
2017-03-03T07:41:53.883Z,275
2017-03-03T07:42:53.887Z,260
2017-03-03T07:43:53.927Z,265
2017-03-03T07:44:53.955Z,275
2017-03-03T07:45:53.975Z,275
2017-03-03T07:46:53.983Z,230
2017-03-03T07:47:54.005Z,215
2017-03-03T07:48:54.044Z,245
2017-03-03T07:49:54.060Z,235
2017-03-03T07:50:54.091Z,245
2017-03-03T07:52:53.753Z,240
2017-03-03T07:53:54.164Z,250
2017-03-03T07:54:54.205Z,240
2017-03-03T07:55:54.247Z,245
2017-03-03T07:56:53.895Z,255
2017-03-03T07:57:54.270Z,260
2017-03-03T07:59:08.809Z,265
2017-03-03T07:59:53.950Z,270
2017-03-03T08:00:54.380Z,260
2017-03-03T08:01:54.357Z,230
2017-03-03T08:03:08.931Z,250
2017-03-03T08:03:54.406Z,260
2017-03-03T08:05:08.963Z,265
2017-03-03T08:05:54.465Z,270
2017-03-03T08:07:09.015Z,280
2017-03-03T08:09:09.063Z,290
2017-03-03T08:09:54.573Z,285
2017-03-03T08:10:54.607Z,260
2017-03-03T08:11:54.645Z,255
2017-03-03T08:12:54.642Z,235
2017-03-03T08:13:54.653Z,220
2017-03-03T08:14:54.679Z,205
2017-03-03T08:16:09.256Z,225
2017-03-03T08:16:54.740Z,230
2017-03-03T08:17:54.776Z,230
2017-03-03T08:18:54.774Z,240
2017-03-03T08:19:54.832Z,250
2017-03-03T08:21:09.354Z,250
2017-03-03T08:22:08.994Z,240
2017-03-03T08:22:54.882Z,255
2017-03-03T08:23:54.914Z,250
2017-03-03T08:25:09.483Z,260
2017-03-03T08:25:54.967Z,265
2017-03-03T08:27:54.997Z,260
2017-03-03T08:28:55.037Z,260
2017-03-03T08:31:09.820Z,250
2017-03-03T08:31:55.088Z,250
2017-03-03T08:32:55.123Z,245
2017-03-03T08:33:55.138Z,250
2017-03-03T08:34:55.164Z,230
2017-03-03T08:35:55.226Z,220
2017-03-03T08:37:09.755Z,215
2017-03-03T08:37:55.245Z,215
2017-03-03T08:39:09.426Z,210
2017-03-03T08:39:55.292Z,215
2017-03-03T08:40:55.306Z,210
2017-03-03T08:42:09.874Z,210
2017-03-03T08:43:09.889Z,220
2017-03-03T08:43:55.396Z,220
2017-03-03T08:44:55.432Z,230
2017-03-03T08:46:09.981Z,220
2017-03-03T08:47:55.524Z,215
2017-03-03T08:48:55.537Z,205
2017-03-03T08:49:55.554Z,205
2017-03-03T08:50:55.554Z,200
2017-03-03T08:51:55.591Z,210
2017-03-03T08:53:10.135Z,210
2017-03-03T08:53:55.623Z,210
2017-03-03T08:54:55.648Z,215
2017-03-03T08:55:55.686Z,220
2017-03-03T08:56:55.767Z,215
2017-03-03T08:57:55.733Z,220
2017-03-03T08:58:55.767Z,240
2017-03-03T09:00:55.814Z,250
2017-03-03T09:01:55.823Z,245
2017-03-03T09:02:55.864Z,245
2017-03-03T09:03:55.912Z,240
2017-03-03T09:04:55.913Z,250
2017-03-03T09:05:55.915Z,240
2017-03-03T09:06:55.942Z,250
2017-03-03T09:08:10.125Z,250
2017-03-03T09:08:55.991Z,235
2017-03-03T09:09:56.036Z,240
2017-03-03T09:10:56.032Z,240
2017-03-03T09:11:56.053Z,240
2017-03-03T09:13:56.101Z,215
2017-03-03T09:15:56.193Z,190
2017-03-03T09:16:56.181Z,215
2017-03-03T09:18:56.228Z,215
2017-03-03T09:19:56.260Z,220
2017-03-03T09:21:56.298Z,220
2017-03-03T09:22:56.330Z,220
2017-03-03T09:23:56.343Z,220
2017-03-03T09:24:56.370Z,230
2017-03-03T09:26:10.937Z,230
2017-03-03T09:26:56.429Z,230
2017-03-03T09:27:56.437Z,225
2017-03-03T09:29:56.527Z,235
2017-03-03T09:31:56.542Z,240
2017-03-03T09:32:56.555Z,240
2017-03-03T09:33:56.613Z,240
2017-03-03T09:34:56.604Z,235
2017-03-03T09:36:25.319Z,220
2017-03-03T09:36:56.660Z,230
2017-03-03T09:37:56.698Z,220
2017-03-03T09:38:56.704Z,220
2017-03-03T09:40:11.273Z,220
2017-03-03T09:40:56.765Z,225
2017-03-03T09:42:11.318Z,225
2017-03-03T09:42:56.797Z,220
2017-03-03T09:44:10.974Z,220
2017-03-03T09:45:11.034Z,220
2017-03-03T09:46:11.010Z,225
2017-03-03T09:46:56.890Z,235
2017-03-03T09:48:11.477Z,250
2017-03-03T09:49:11.503Z,240
2017-03-03T09:49:56.988Z,250
2017-03-03T09:50:56.993Z,260
2017-03-03T09:52:11.539Z,250
2017-03-03T09:53:11.578Z,250
2017-03-03T09:53:57.068Z,260
2017-03-03T09:56:26.199Z,265
2017-03-03T09:56:57.149Z,265
2017-03-03T09:57:57.166Z,255
2017-03-03T09:59:11.735Z,250
2017-03-03T09:59:57.203Z,230
2017-03-03T10:00:57.261Z,245
2017-03-03T10:01:57.296Z,250
2017-03-03T10:02:57.280Z,235
2017-03-03T10:03:57.324Z,225
2017-03-03T10:04:57.355Z,225
2017-03-03T10:05:57.360Z,215
2017-03-03T10:06:57.379Z,245
2017-03-03T10:07:57.425Z,240
2017-03-03T10:08:57.437Z,230
2017-03-03T10:09:57.084Z,245
2017-03-03T10:11:12.031Z,240
2017-03-03T10:12:12.063Z,240
2017-03-03T10:12:57.544Z,240
2017-03-03T10:13:57.186Z,240
2017-03-03T10:15:12.104Z,235
2017-03-03T10:15:57.599Z,230
2017-03-03T10:16:57.619Z,225
2017-03-03T10:18:12.179Z,225
2017-03-03T10:18:57.723Z,220
2017-03-03T10:19:57.708Z,220
2017-03-03T10:21:12.280Z,220
2017-03-03T10:21:57.744Z,220
2017-03-03T10:22:57.778Z,220
2017-03-03T10:23:57.824Z,220
2017-03-03T10:24:57.856Z,215
2017-03-03T10:25:57.887Z,215
2017-03-03T10:26:57.867Z,210
2017-03-03T10:28:12.037Z,215
2017-03-03T10:28:57.921Z,215
2017-03-03T10:29:57.947Z,210
2017-03-03T10:31:58.002Z,210
2017-03-03T10:33:12.567Z,205
2017-03-03T10:33:58.259Z,205
2017-03-03T10:34:58.072Z,205
2017-03-03T10:36:12.624Z,205
2017-03-03T10:36:58.113Z,195
2017-03-03T10:37:58.152Z,200
2017-03-03T10:38:58.180Z,195
2017-03-03T10:39:58.202Z,190
2017-03-03T10:40:58.212Z,190
2017-03-03T10:41:57.864Z,185
2017-03-03T10:43:27.342Z,180
2017-03-03T10:43:58.292Z,175
2017-03-03T10:44:58.303Z,175
2017-03-03T10:45:58.342Z,170
2017-03-03T10:46:58.374Z,165
2017-03-03T10:48:12.907Z,160
2017-03-03T10:48:58.405Z,160
2017-03-03T10:49:58.430Z,160
2017-03-03T10:50:58.450Z,155
2017-03-03T10:51:58.102Z,150
2017-03-03T10:52:58.499Z,145
2017-03-03T10:54:13.059Z,140
2017-03-03T10:54:58.548Z,135
2017-03-03T10:56:13.113Z,135
2017-03-03T10:56:58.262Z,135
2017-03-03T10:57:58.617Z,135
2017-03-03T10:59:13.171Z,140
2017-03-03T10:59:58.661Z,140
2017-03-03T11:00:58.697Z,140
2017-03-03T11:01:58.739Z,145
2017-03-03T11:02:58.738Z,150
2017-03-03T11:04:12.902Z,145
2017-03-03T11:04:58.782Z,145
2017-03-03T11:05:58.441Z,145
2017-03-03T11:06:58.827Z,140
2017-03-03T11:07:58.926Z,140
2017-03-03T11:09:13.420Z,140
2017-03-03T11:09:58.911Z,135
2017-03-03T11:11:13.445Z,135
2017-03-03T11:11:58.945Z,135
2017-03-03T11:12:58.975Z,135
2017-03-03T11:13:58.986Z,130
2017-03-03T11:15:13.556Z,135
2017-03-03T11:15:59.045Z,140
2017-03-03T11:16:58.674Z,140
2017-03-03T11:17:59.084Z,140
2017-03-03T11:19:13.630Z,140
2017-03-03T11:19:58.735Z,140
2017-03-03T11:20:59.202Z,135
2017-03-03T11:21:59.179Z,140
2017-03-03T11:22:59.200Z,140
2017-03-03T11:23:59.265Z,135
2017-03-03T11:24:59.255Z,135
2017-03-03T11:25:58.903Z,140
2017-03-03T11:26:59.304Z,135
2017-03-03T11:27:59.341Z,135
2017-03-03T11:28:59.346Z,135
2017-03-03T11:29:59.376Z,135
2017-03-03T11:31:59.411Z,130
2017-03-03T11:32:59.423Z,130
2017-03-03T11:33:59.505Z,130
2017-03-03T11:35:13.635Z,130
2017-03-03T11:35:59.122Z,125
2017-03-03T11:36:59.128Z,125
2017-03-03T11:37:59.548Z,125
2017-03-03T11:38:59.605Z,125
2017-03-03T11:39:59.225Z,125
2017-03-03T11:40:59.612Z,125
2017-03-03T11:41:59.633Z,125
2017-03-03T11:42:59.661Z,130
2017-03-03T11:43:59.685Z,130
2017-03-03T11:44:59.725Z,130
2017-03-03T11:45:59.735Z,130
2017-03-03T11:47:14.276Z,130
2017-03-03T11:47:59.925Z,130
2017-03-03T11:48:59.796Z,130
2017-03-03T11:49:59.449Z,130
2017-03-03T11:51:14.368Z,120
2017-03-03T11:52:59.897Z,130
2017-03-03T11:53:59.906Z,130
2017-03-03T11:54:59.958Z,130
2017-03-03T11:56:00.501Z,130
2017-03-03T11:57:00.001Z,130
2017-03-03T11:57:59.999Z,130
2017-03-03T11:59:00.018Z,135
2017-03-03T12:00:00.085Z,135
2017-03-03T12:01:00.080Z,135
2017-03-03T12:02:00.104Z,135
2017-03-03T12:04:00.137Z,135
2017-03-03T12:05:00.163Z,135
2017-03-03T12:05:59.818Z,135
2017-03-03T12:07:14.741Z,130
2017-03-03T12:07:59.850Z,130
2017-03-03T12:09:00.256Z,130
2017-03-03T12:10:00.305Z,125
2017-03-03T12:11:00.326Z,125
2017-03-03T12:12:00.336Z,125
2017-03-03T12:13:00.371Z,130
2017-03-03T12:15:00.389Z,130
2017-03-03T12:16:00.407Z,125
2017-03-03T12:17:00.420Z,130
2017-03-03T12:18:14.994Z,135
2017-03-03T12:20:00.510Z,140
2017-03-03T12:21:15.068Z,135
2017-03-03T12:22:15.078Z,135
2017-03-03T12:23:00.561Z,135
2017-03-03T12:24:00.586Z,135
2017-03-03T12:25:00.615Z,130
2017-03-03T12:26:00.635Z,130
2017-03-03T12:27:00.663Z,130
2017-03-03T12:28:00.710Z,135
2017-03-03T12:29:00.699Z,130
2017-03-03T12:30:00.719Z,135
2017-03-03T12:31:00.362Z,135
2017-03-03T12:32:00.765Z,135
2017-03-03T12:33:00.785Z,140
2017-03-03T12:34:00.806Z,140
2017-03-03T12:36:00.869Z,140
2017-03-03T12:37:15.429Z,140
2017-03-03T12:38:00.900Z,140
2017-03-03T12:39:15.455Z,140
2017-03-03T12:40:15.478Z,145
2017-03-03T12:41:01.000Z,145
2017-03-03T12:42:01.014Z,140
2017-03-03T12:43:00.881Z,140
2017-03-03T12:44:01.054Z,135
2017-03-03T12:45:01.061Z,135
2017-03-03T12:46:01.114Z,135
2017-03-03T12:47:01.117Z,140
2017-03-03T12:48:01.141Z,140
2017-03-03T12:49:00.792Z,135
2017-03-03T12:50:15.313Z,140
2017-03-03T12:51:01.255Z,140
2017-03-03T12:52:00.829Z,140
2017-03-03T12:53:15.775Z,135
2017-03-03T12:54:15.826Z,120
2017-03-03T12:55:01.326Z,125
2017-03-03T12:56:15.837Z,130
2017-03-03T12:57:00.958Z,130
2017-03-03T12:58:01.409Z,130
2017-03-03T12:59:01.381Z,130
2017-03-03T13:00:01.459Z,130
2017-03-03T13:01:01.427Z,130
2017-03-03T13:02:01.447Z,130
2017-03-03T13:03:01.487Z,130
2017-03-03T13:04:01.499Z,130
2017-03-03T13:05:01.517Z,130
2017-03-03T13:06:15.707Z,130
2017-03-03T13:07:01.585Z,130
2017-03-03T13:09:01.602Z,125
2017-03-03T13:10:01.626Z,120
2017-03-03T13:11:00.889Z,120
2017-03-03T13:12:01.333Z,125
2017-03-03T13:13:15.834Z,125
2017-03-03T13:14:01.347Z,130
2017-03-03T13:15:15.898Z,125
2017-03-03T13:16:01.401Z,130
2017-03-03T13:18:01.041Z,130
2017-03-03T13:19:01.059Z,130
2017-03-03T13:20:01.861Z,125
2017-03-03T13:21:16.409Z,130
2017-03-03T13:22:16.420Z,130
2017-03-03T13:23:01.545Z,130
2017-03-03T13:24:01.571Z,125
2017-03-03T13:25:01.958Z,125
2017-03-03T13:26:01.615Z,125
2017-03-03T13:27:01.246Z,125
2017-03-03T13:28:02.064Z,125
2017-03-03T13:29:01.671Z,125
2017-03-03T13:31:01.710Z,125
2017-03-03T13:32:16.649Z,125
2017-03-03T13:33:16.668Z,130
2017-03-03T13:34:16.690Z,135
2017-03-03T13:35:02.293Z,130
2017-03-03T13:36:02.207Z,130
2017-03-03T13:37:01.857Z,130
2017-03-03T13:38:16.797Z,130
2017-03-03T13:39:02.316Z,130
2017-03-03T13:40:01.924Z,130
2017-03-03T13:41:01.937Z,135
2017-03-03T13:44:02.428Z,130
2017-03-03T13:45:02.436Z,130
2017-03-03T13:46:02.462Z,135
2017-03-03T13:47:02.106Z,135
2017-03-03T13:48:02.501Z,135
2017-03-03T13:49:17.045Z,140
2017-03-03T13:50:02.159Z,140
2017-03-03T13:51:02.570Z,140
2017-03-03T13:52:02.570Z,135
2017-03-03T13:53:17.121Z,125
2017-03-03T13:54:02.237Z,130
2017-03-03T13:56:17.192Z,130
2017-03-03T13:57:02.737Z,130
2017-03-03T13:58:02.731Z,130
2017-03-03T13:59:02.355Z,135
2017-03-03T14:00:02.782Z,140
2017-03-03T14:01:02.778Z,140
2017-03-03T14:02:02.812Z,140
2017-03-03T14:03:17.371Z,135
2017-03-03T14:04:02.844Z,135
2017-03-03T14:05:02.884Z,135
2017-03-03T14:06:17.468Z,135
2017-03-03T14:07:02.927Z,135
2017-03-03T14:08:02.962Z,135
2017-03-03T14:09:02.586Z,135
2017-03-03T14:10:02.990Z,135
2017-03-03T14:11:03.010Z,135
2017-03-03T14:12:03.033Z,135
2017-03-03T14:13:03.053Z,130
2017-03-03T14:14:17.206Z,125
2017-03-03T14:15:03.749Z,130
2017-03-03T14:16:03.129Z,125
2017-03-03T14:17:02.777Z,120
2017-03-03T14:18:17.684Z,115
2017-03-03T14:19:03.188Z,120
2017-03-03T14:20:03.213Z,130
2017-03-03T14:21:17.764Z,130
2017-03-03T14:22:03.260Z,130
2017-03-03T14:23:03.271Z,130
2017-03-03T14:24:03.292Z,130
2017-03-03T14:25:17.856Z,130
2017-03-03T14:26:03.332Z,135
2017-03-03T14:27:03.368Z,130
2017-03-03T14:28:17.910Z,130
2017-03-03T14:29:03.436Z,130
2017-03-03T14:30:03.055Z,130
2017-03-03T14:31:17.995Z,130
2017-03-03T14:32:03.468Z,130
2017-03-03T14:33:18.036Z,130
2017-03-03T14:34:03.547Z,130
2017-03-03T14:35:03.580Z,125
2017-03-03T14:37:03.221Z,125
2017-03-03T14:38:18.146Z,125
2017-03-03T14:39:03.649Z,125
2017-03-03T14:40:03.690Z,115
2017-03-03T14:41:18.203Z,110
2017-03-03T14:42:03.696Z,110
2017-03-03T14:43:03.735Z,110
2017-03-03T14:44:04.304Z,110
2017-03-03T14:45:03.784Z,110
2017-03-03T14:46:03.799Z,110
2017-03-03T14:47:03.816Z,110
2017-03-03T14:48:03.869Z,110
2017-03-03T14:49:03.855Z,110
2017-03-03T14:50:03.884Z,105
2017-03-03T14:51:03.908Z,105
2017-03-03T14:52:18.459Z,95
2017-03-03T14:53:18.081Z,95
2017-03-03T14:54:03.986Z,95
2017-03-03T14:56:03.625Z,95
2017-03-03T14:57:18.559Z,90
2017-03-03T14:58:04.071Z,85
2017-03-03T14:59:18.240Z,85
2017-03-03T15:00:04.116Z,85
2017-03-03T15:01:04.125Z,80
2017-03-03T15:02:18.672Z,80
2017-03-03T15:03:04.174Z,80
2017-03-03T15:04:04.233Z,85
2017-03-03T15:05:04.228Z,85
2017-03-03T15:06:18.757Z,80
2017-03-03T15:07:04.251Z,75
2017-03-03T15:08:03.888Z,75
2017-03-03T15:09:04.299Z,80